Time;durP1;ratioP1;P1;durP2;ratioP2;P2;SDS_P1;SDS_P2;PMS_P1;PMS_P2;Temp;Humidity;BMP_temperature;BMP_pressure;BME280_temperature;BME280_humidity;BME280_pressure;Samples;Min_cycle;Max_cycle;Signal;HPM_P1;HPM_P2
2023/03/17 00:01:52;;;;;;;5.22;2.92;;;3.10;43.00;;;;;;5023677;28;46303;-83
2023/03/17 00:04:19;;;;;;;4.80;3.30;;;2.90;43.10;;;;;;5053407;28;46860;-81
2023/03/17 00:06:46;;;;;;;7.47;3.30;;;2.90;43.20;;;;;;5022734;28;46498;-80
2023/03/17 00:09:13;;;;;;;5.75;3.40;;;2.80;43.20;;;;;;5020387;28;46405;-82
2023/03/17 00:11:39;;;;;;;6.95;3.70;;;2.80;43.30;;;;;;5023893;28;46382;-81
2023/03/17 00:14:05;;;;;;;5.97;3.37;;;2.80;43.30;;;;;;5054334;28;46449;-81
2023/03/17 00:16:36;;;;;;;6.50;4.03;;;2.70;43.40;;;;;;5026416;28;46343;-81
2023/03/17 00:19:02;;;;;;;7.43;4.10;;;2.70;44.80;;;;;;5022667;28;48460;-81
2023/03/17 00:21:31;;;;;;;9.40;3.77;;;2.60;43.60;;;;;;5022079;28;46574;-81
2023/03/17 00:23:58;;;;;;;6.78;3.65;;;2.60;43.80;;;;;;5025237;28;46323;-81
2023/03/17 00:26:24;;;;;;;12.00;4.87;;;2.50;44.10;;;;;;5025079;28;46450;-81
2023/03/17 00:28:50;;;;;;;8.77;5.50;;;2.40;44.20;;;;;;5028691;28;47331;-82
2023/03/17 00:31:19;;;;;;;9.85;5.03;;;2.40;44.40;;;;;;5026401;28;46253;-81
2023/03/17 00:33:46;;;;;;;8.00;4.63;;;2.40;44.60;;;;;;5027863;28;46375;-81
2023/03/17 00:36:16;;;;;;;9.47;5.10;;;2.40;44.30;;;;;;5026217;28;46542;-80
2023/03/17 00:38:41;;;;;;;9.82;5.68;;;2.40;44.30;;;;;;5018930;28;46523;-81
2023/03/17 00:41:08;;;;;;;8.17;4.80;;;2.40;44.40;;;;;;5014941;28;46341;-80
2023/03/17 00:43:34;;;;;;;7.90;4.57;;;2.40;44.30;;;;;;5014211;28;46470;-78
2023/03/17 00:46:00;;;;;;;7.83;4.60;;;2.40;44.20;;;;;;5009979;28;46592;-80
2023/03/17 00:48:28;;;;;;;9.03;4.43;;;2.40;44.30;;;;;;5025417;28;47429;-79
2023/03/17 00:50:54;;;;;;;13.82;5.53;;;2.30;44.20;;;;;;5016717;28;46622;-81
2023/03/17 00:53:20;;;;;;;8.10;4.70;;;2.30;44.40;;;;;;5015589;28;46288;-78
2023/03/17 00:55:47;;;;;;;7.00;4.63;;;2.30;44.50;;;;;;5015132;28;47006;-79
2023/03/17 00:58:23;;;;;;;8.23;5.05;;;2.20;44.40;;;;;;5017119;28;46423;-81
2023/03/17 01:00:49;;;;;;;7.80;5.03;;;2.20;44.40;;;;;;5015009;28;46362;-80
2023/03/17 01:03:15;;;;;;;8.57;4.50;;;2.20;44.50;;;;;;5010833;28;47174;-80
2023/03/17 01:05:41;;;;;;;12.03;4.63;;;2.20;44.60;;;;;;5016318;28;46430;-83
2023/03/17 01:08:08;;;;;;;6.93;4.10;;;2.20;44.80;;;;;;5028466;28;46414;-83
2023/03/17 01:10:35;;;;;;;8.20;5.00;;;2.20;45.90;;;;;;5034855;28;46137;-82
2023/03/17 01:13:01;;;;;;;8.75;4.95;;;2.20;44.60;;;;;;5026385;28;46435;-79
2023/03/17 01:15:30;;;;;;;8.20;4.45;;;2.20;44.70;;;;;;5004892;28;46336;-79
2023/03/17 01:17:57;;;;;;;5.82;4.22;;;2.10;44.80;;;;;;5023317;28;46374;-81
2023/03/17 01:20:41;;;;;;;10.18;4.32;;;2.00;46.10;;;;;;5017047;28;46710;-78
2023/03/17 01:23:08;;;;;;;6.50;4.30;;;2.00;45.20;;;;;;5017583;28;46602;-81
2023/03/17 01:25:34;;;;;;;7.93;3.70;;;1.90;45.00;;;;;;5017852;28;46520;-77
2023/03/17 01:28:00;;;;;;;7.13;4.18;;;1.90;45.00;;;;;;5052218;28;47203;-79
2023/03/17 01:30:32;;;;;;;10.77;5.00;;;1.90;45.30;;;;;;5014852;28;46491;-81
2023/03/17 01:32:58;;;;;;;6.50;3.95;;;1.90;45.30;;;;;;5019201;28;46508;-79
2023/03/17 01:35:26;;;;;;;5.80;3.90;;;2.00;45.50;;;;;;5018717;28;46472;-75
2023/03/17 01:37:52;;;;;;;9.45;4.30;;;2.00;45.10;;;;;;5017367;28;46419;-78
2023/03/17 01:40:28;;;;;;;5.95;3.95;;;2.00;45.00;;;;;;5009544;28;46581;-79
2023/03/17 01:43:03;;;;;;;7.10;4.45;;;2.00;45.10;;;;;;5015538;28;46878;-78
2023/03/17 01:46:06;;;;;;;6.25;3.65;;;1.90;45.40;;;;;;5012367;28;46434;-79
2023/03/17 01:48:38;;;;;;;6.32;3.58;;;1.80;45.50;;;;;;5014112;28;46477;-78
2023/03/17 01:51:05;;;;;;;6.10;3.50;;;1.70;45.50;;;;;;5016173;28;46301;-80
2023/03/17 01:53:33;;;;;;;5.15;3.33;;;1.70;45.50;;;;;;5015821;28;45895;-80
2023/03/17 01:56:00;;;;;;;5.87;3.73;;;1.70;45.50;;;;;;5013431;28;46356;-79
2023/03/17 01:58:26;;;;;;;6.28;3.90;;;1.70;45.50;;;;;;5020536;28;46481;-81
2023/03/17 02:00:52;;;;;;;6.65;3.67;;;1.80;45.50;;;;;;5034853;28;45863;-81
2023/03/17 02:03:18;;;;;;;7.70;3.73;;;1.90;45.30;;;;;;5036369;28;46333;-82
2023/03/17 02:05:45;;;;;;;5.78;3.92;;;2.00;45.00;;;;;;5016154;28;46618;-80
2023/03/17 02:08:14;;;;;;;5.32;3.55;;;2.10;45.10;;;;;;5014077;28;46356;-81
2023/03/17 02:10:40;;;;;;;5.55;4.07;;;2.20;44.90;;;;;;5018276;28;46317;-78
2023/03/17 02:13:09;;;;;;;7.00;3.70;;;2.30;44.70;;;;;;5035709;28;46400;-78
2023/03/17 02:15:38;;;;;;;10.55;3.83;;;2.40;44.60;;;;;;5016452;28;46434;-79
2023/03/17 02:18:03;;;;;;;6.80;3.50;;;2.50;44.50;;;;;;5017053;28;46347;-80
2023/03/17 02:20:29;;;;;;;6.60;4.30;;;2.50;44.40;;;;;;5020631;28;47012;-82
2023/03/17 02:22:56;;;;;;;6.80;3.70;;;2.60;44.40;;;;;;5020053;28;47002;-78
2023/03/17 02:25:23;;;;;;;7.28;3.92;;;2.60;44.30;;;;;;5013629;28;46658;-81
2023/03/17 02:27:53;;;;;;;6.55;3.80;;;2.60;44.20;;;;;;5013927;28;46658;-80
2023/03/17 02:30:22;;;;;;;4.68;3.15;;;2.70;44.40;;;;;;5013120;28;46433;-80
2023/03/17 02:32:47;;;;;;;6.60;3.58;;;2.60;44.60;;;;;;5017576;28;46402;-82
2023/03/17 02:35:14;;;;;;;5.53;3.20;;;2.50;44.70;;;;;;5011265;28;45902;-80
2023/03/17 02:37:42;;;;;;;8.60;3.92;;;2.50;44.90;;;;;;5012894;28;46509;-82
2023/03/17 02:40:10;;;;;;;6.35;3.25;;;2.50;45.10;;;;;;5012507;28;46349;-79
2023/03/17 02:42:38;;;;;;;5.68;3.10;;;2.40;45.20;;;;;;5013503;28;46485;-79
2023/03/17 02:45:05;;;;;;;4.40;3.13;;;2.20;45.50;;;;;;5017818;28;46485;-82
2023/03/17 02:47:31;;;;;;;3.53;2.83;;;2.10;45.90;;;;;;5012174;28;46328;-79
2023/03/17 02:49:57;;;;;;;6.30;3.53;;;2.10;45.90;;;;;;5014445;28;46851;-78
2023/03/17 02:52:23;;;;;;;4.78;3.35;;;2.00;45.70;;;;;;5016168;28;46410;-84
2023/03/17 02:54:48;;;;;;;7.80;3.10;;;2.00;45.70;;;;;;5017518;28;46347;-80
2023/03/17 02:57:14;;;;;;;6.67;3.07;;;2.00;45.80;;;;;;5016112;28;46457;-82
2023/03/17 02:59:40;;;;;;;5.30;3.50;;;2.00;45.80;;;;;;5019310;28;46397;-84
2023/03/17 03:02:05;;;;;;;4.53;3.13;;;2.00;45.80;;;;;;5020392;28;46704;-79
2023/03/17 03:04:31;;;;;;;4.77;3.43;;;2.10;45.80;;;;;;5015862;28;47909;-77
2023/03/17 03:06:57;;;;;;;5.40;3.80;;;2.10;45.90;;;;;;5019063;28;46305;-75
2023/03/17 03:09:23;;;;;;;4.30;2.80;;;2.10;45.90;;;;;;5019920;28;46592;-81
2023/03/17 03:11:49;;;;;;;4.93;3.13;;;2.10;45.50;;;;;;5013919;28;46261;-78
2023/03/17 03:14:15;;;;;;;4.05;2.70;;;2.20;45.50;;;;;;5016056;28;46335;-78
2023/03/17 03:16:40;;;;;;;4.47;3.23;;;2.20;45.30;;;;;;5016352;28;46494;-77
2023/03/17 03:19:06;;;;;;;6.60;3.23;;;2.20;45.20;;;;;;5018445;28;46424;-80
2023/03/17 03:21:32;;;;;;;5.55;3.30;;;2.20;45.20;;;;;;5020801;28;46581;-79
2023/03/17 03:23:58;;;;;;;5.67;3.10;;;2.20;45.10;;;;;;5022564;28;46347;-80
2023/03/17 03:26:24;;;;;;;6.27;3.77;;;2.30;45.20;;;;;;5014334;28;46905;-78
2023/03/17 03:28:50;;;;;;;4.03;3.10;;;2.30;45.10;;;;;;5015347;28;46466;-79
2023/03/17 03:31:15;;;;;;;6.67;3.77;;;2.30;45.10;;;;;;5012099;28;46652;-78
2023/03/17 03:33:42;;;;;;;5.70;3.33;;;2.40;45.20;;;;;;5013996;28;46273;-79
2023/03/17 03:36:08;;;;;;;5.45;3.55;;;2.40;45.10;;;;;;5013911;28;46957;-78
2023/03/17 03:38:34;;;;;;;5.28;3.50;;;2.60;45.10;;;;;;5012451;28;47030;-77
2023/03/17 03:41:00;;;;;;;6.90;3.90;;;2.50;45.00;;;;;;5011590;28;46253;-78
2023/03/17 03:43:26;;;;;;;4.80;3.30;;;2.50;44.90;;;;;;5015060;28;46405;-78
2023/03/17 03:45:53;;;;;;;8.48;3.70;;;2.60;45.10;;;;;;5012791;28;46448;-80
2023/03/17 03:48:19;;;;;;;6.30;3.83;;;2.60;44.90;;;;;;5029989;28;46658;-80
2023/03/17 03:50:45;;;;;;;6.10;3.33;;;2.60;44.90;;;;;;5014370;28;46561;-78
2023/03/17 03:53:11;;;;;;;6.63;3.47;;;2.60;44.80;;;;;;5017012;28;46438;-82
2023/03/17 03:55:37;;;;;;;7.53;4.10;;;2.70;45.00;;;;;;5023270;28;48030;-78
2023/03/17 03:58:02;;;;;;;7.47;4.20;;;2.70;45.00;;;;;;5017329;28;46392;-78
2023/03/17 04:00:28;;;;;;;8.40;4.30;;;2.80;45.40;;;;;;5020436;28;46635;-80
2023/03/17 04:02:53;;;;;;;7.20;4.27;;;2.60;45.50;;;;;;5015975;28;46673;-79
2023/03/17 04:05:19;;;;;;;8.63;5.13;;;2.50;45.70;;;;;;5020020;28;46477;-81
2023/03/17 04:07:46;;;;;;;6.23;4.90;;;2.60;45.50;;;;;;5016691;28;45841;-76
2023/03/17 04:10:13;;;;;;;8.38;4.68;;;2.70;45.40;;;;;;5012011;28;46466;-77
2023/03/17 04:12:39;;;;;;;5.00;3.70;;;2.70;45.30;;;;;;5015410;28;46535;-78
2023/03/17 04:15:06;;;;;;;9.47;5.00;;;2.70;45.20;;;;;;5017441;28;46941;-76
2023/03/17 04:17:31;;;;;;;6.90;4.80;;;2.70;45.20;;;;;;5012867;28;46402;-77
2023/03/17 04:19:57;;;;;;;7.57;5.27;;;2.60;45.80;;;;;;5018282;28;46304;-78
2023/03/17 04:22:23;;;;;;;10.63;5.63;;;2.60;46.30;;;;;;5012613;28;46451;-78
2023/03/17 04:24:49;;;;;;;8.63;5.23;;;2.60;46.30;;;;;;5014222;28;46450;-78
2023/03/17 04:27:16;;;;;;;8.80;5.00;;;2.60;46.30;;;;;;5017060;28;46673;-78
2023/03/17 04:29:42;;;;;;;9.40;4.75;;;2.50;46.20;;;;;;5012036;28;46461;-78
2023/03/17 04:32:10;;;;;;;8.60;5.00;;;2.60;46.20;;;;;;5012631;28;46407;-76
2023/03/17 04:34:36;;;;;;;10.88;5.60;;;2.60;46.20;;;;;;5010944;28;46476;-78
2023/03/17 04:37:01;;;;;;;9.57;5.90;;;2.50;47.40;;;;;;5014347;28;46113;-75
2023/03/17 04:39:27;;;;;;;8.97;5.33;;;2.50;46.20;;;;;;5016176;28;46347;-76
2023/03/17 04:41:53;;;;;;;7.88;5.30;;;2.50;46.20;;;;;;5022972;28;46515;-79
2023/03/17 04:44:19;;;;;;;7.13;5.17;;;2.50;46.10;;;;;;5026407;28;46391;-78
2023/03/17 04:46:45;;;;;;;8.27;5.63;;;2.50;46.20;;;;;;5026923;28;45858;-78
2023/03/17 04:49:11;;;;;;;11.43;6.30;;;2.40;46.10;;;;;;5017731;28;46832;-77
2023/03/17 04:51:36;;;;;;;6.93;5.37;;;2.40;46.10;;;;;;5015816;28;46640;-77
2023/03/17 04:54:03;;;;;;;8.80;6.07;;;2.50;46.20;;;;;;5009113;28;46407;-77
2023/03/17 04:56:28;;;;;;;13.65;8.05;;;2.40;46.10;;;;;;5011253;28;46438;-77
2023/03/17 04:58:54;;;;;;;9.00;6.13;;;2.50;46.20;;;;;;5016350;28;46211;-77
2023/03/17 05:01:20;;;;;;;14.83;6.87;;;2.50;46.20;;;;;;5015861;28;46547;-78
2023/03/17 05:03:47;;;;;;;8.25;5.20;;;2.50;46.20;;;;;;5013099;28;47766;-77
2023/03/17 05:06:13;;;;;;;6.85;4.40;;;2.50;46.20;;;;;;5014911;28;46543;-78
2023/03/17 05:08:39;;;;;;;6.80;4.50;;;2.40;46.10;;;;;;5012925;28;46511;-78
2023/03/17 05:11:05;;;;;;;14.90;5.40;;;2.40;46.10;;;;;;5013243;28;46435;-79
2023/03/17 05:13:30;;;;;;;7.83;5.07;;;2.40;46.10;;;;;;5013224;28;46665;-78
2023/03/17 05:15:56;;;;;;;7.47;5.40;;;2.40;46.10;;;;;;5018677;28;46550;-78
2023/03/17 05:18:23;;;;;;;7.43;5.07;;;2.30;46.00;;;;;;5015115;28;46563;-78
2023/03/17 05:20:49;;;;;;;6.00;3.95;;;2.30;46.00;;;;;;5022390;28;46451;-78
2023/03/17 05:23:15;;;;;;;5.87;4.20;;;2.30;46.00;;;;;;5012156;28;47031;-78
2023/03/17 05:25:41;;;;;;;6.57;4.17;;;2.30;46.00;;;;;;5013627;28;46614;-77
2023/03/17 05:28:07;;;;;;;6.23;4.17;;;2.30;46.00;;;;;;5019920;28;46521;-76
2023/03/17 05:30:35;;;;;;;5.55;3.47;;;2.30;46.10;;;;;;5017148;28;46359;-77
2023/03/17 05:33:01;;;;;;;6.95;4.13;;;2.30;46.20;;;;;;5014574;28;46331;-75
2023/03/17 05:35:26;;;;;;;7.00;4.20;;;2.20;46.40;;;;;;5011552;28;46483;-80
2023/03/17 05:37:52;;;;;;;5.23;3.67;;;2.20;46.50;;;;;;5012815;28;46728;-76
2023/03/17 05:40:18;;;;;;;6.10;3.93;;;2.30;46.50;;;;;;5014399;28;46441;-76
2023/03/17 05:42:44;;;;;;;5.73;4.07;;;2.30;46.60;;;;;;5014818;28;46404;-75
2023/03/17 05:45:10;;;;;;;7.83;4.33;;;2.40;46.70;;;;;;5013304;28;46371;-77
2023/03/17 05:47:36;;;;;;;6.80;4.75;;;2.30;46.60;;;;;;5013334;28;46387;-79
2023/03/17 05:50:03;;;;;;;7.40;4.80;;;2.30;46.80;;;;;;5014490;28;46522;-76
2023/03/17 05:52:30;;;;;;;8.80;4.88;;;2.30;46.80;;;;;;5016571;28;46713;-79
2023/03/17 05:54:56;;;;;;;9.82;4.88;;;2.30;46.90;;;;;;5012824;28;46336;-76
2023/03/17 05:57:22;;;;;;;10.10;5.67;;;2.30;47.10;;;;;;5014488;28;46402;-78
2023/03/17 05:59:49;;;;;;;7.80;5.10;;;2.40;47.10;;;;;;5014334;28;46555;-76
2023/03/17 06:02:15;;;;;;;8.90;5.13;;;2.40;47.20;;;;;;5009961;28;46876;-78
2023/03/17 06:04:42;;;;;;;8.83;4.80;;;2.50;47.10;;;;;;5016073;28;46658;-78
2023/03/17 06:07:09;;;;;;;5.30;3.90;;;2.70;46.80;;;;;;5013612;28;45888;-78
2023/03/17 06:09:35;;;;;;;5.50;4.07;;;2.70;46.50;;;;;;5015491;28;46370;-78
2023/03/17 06:12:01;;;;;;;12.35;5.60;;;2.80;46.50;;;;;;5018052;28;46960;-77
2023/03/17 06:14:26;;;;;;;10.57;5.05;;;2.80;46.50;;;;;;5012007;28;45884;-76
2023/03/17 06:16:52;;;;;;;10.10;5.10;;;2.90;46.60;;;;;;5014305;28;46502;-78
2023/03/17 06:19:18;;;;;;;8.73;4.97;;;3.00;46.60;;;;;;5012992;28;46458;-78
2023/03/17 06:21:43;;;;;;;7.27;5.13;;;3.00;46.60;;;;;;5013291;28;47173;-76
2023/03/17 06:24:09;;;;;;;13.00;5.80;;;3.00;46.60;;;;;;5013219;28;46364;-77
2023/03/17 06:26:36;;;;;;;10.83;5.80;;;3.10;46.70;;;;;;5008071;28;46383;-76
2023/03/17 06:29:03;;;;;;;6.57;4.30;;;3.20;46.80;;;;;;5013819;28;46532;-77
2023/03/17 06:31:29;;;;;;;6.07;4.85;;;3.30;46.90;;;;;;5013692;28;46209;-78
2023/03/17 06:33:56;;;;;;;7.10;4.30;;;3.50;47.10;;;;;;5013351;28;46287;-77
2023/03/17 06:36:22;;;;;;;5.15;3.90;;;3.60;46.70;;;;;;5016014;28;46502;-76
2023/03/17 06:38:48;;;;;;;7.23;4.20;;;3.70;46.10;;;;;;5014027;28;47207;-77
2023/03/17 06:41:13;;;;;;;8.20;4.47;;;3.90;45.90;;;;;;5007652;28;46676;-76
2023/03/17 06:43:40;;;;;;;9.10;5.57;;;4.00;45.70;;;;;;5012513;28;46998;-76
2023/03/17 06:46:06;;;;;;;7.15;4.70;;;4.00;45.50;;;;;;5014855;28;45808;-77
2023/03/17 06:48:32;;;;;;;6.73;4.50;;;4.10;45.50;;;;;;5011215;28;46516;-78
2023/03/17 06:50:58;;;;;;;9.80;4.15;;;4.10;45.50;;;;;;5010722;28;46398;-75
2023/03/17 06:53:24;;;;;;;9.60;3.83;;;4.30;45.60;;;;;;5007542;28;46412;-77
2023/03/17 06:55:50;;;;;;;7.10;4.30;;;4.30;45.70;;;;;;5012449;28;46387;-77
2023/03/17 06:58:15;;;;;;;9.83;4.00;;;4.50;45.70;;;;;;5012247;28;46384;-78
2023/03/17 07:00:42;;;;;;;5.57;3.90;;;4.60;45.50;;;;;;5009091;28;46778;-78
2023/03/17 07:03:08;;;;;;;5.30;3.50;;;4.60;45.40;;;;;;5012108;28;46872;-76
2023/03/17 07:05:34;;;;;;;9.13;4.13;;;4.80;45.40;;;;;;5012517;28;46428;-78
2023/03/17 07:08:00;;;;;;;7.10;3.40;;;4.90;45.20;;;;;;5014035;28;46379;-78
2023/03/17 07:10:25;;;;;;;8.60;4.63;;;5.10;45.40;;;;;;5010199;28;46408;-79
2023/03/17 07:12:51;;;;;;;4.50;3.40;;;5.30;45.40;;;;;;5010729;28;46369;-77
2023/03/17 07:15:17;;;;;;;6.10;4.30;;;5.50;45.50;;;;;;5017285;28;45864;-78
2023/03/17 07:17:45;;;;;;;10.00;5.07;;;5.50;45.40;;;;;;5010014;28;46426;-79
2023/03/17 07:20:12;;;;;;;9.37;5.33;;;5.70;45.20;;;;;;5010309;28;47183;-77
2023/03/17 07:22:38;;;;;;;12.90;5.10;;;5.90;45.00;;;;;;5010812;28;45863;-79
2023/03/17 07:25:05;;;;;;;11.10;4.20;;;6.10;44.50;;;;;;5012696;28;45839;-79
2023/03/17 07:27:30;;;;;;;8.87;4.73;;;6.30;44.10;;;;;;5011534;28;46390;-78
2023/03/17 07:29:56;;;;;;;7.73;4.30;;;6.40;43.80;;;;;;5015517;28;47141;-79
2023/03/17 07:32:22;;;;;;;7.83;4.77;;;6.50;43.70;;;;;;5008508;28;46328;-78
2023/03/17 07:34:48;;;;;;;6.77;5.00;;;6.60;43.60;;;;;;5011813;28;46443;-77
2023/03/17 07:37:14;;;;;;;7.40;4.63;;;6.70;43.30;;;;;;5012303;28;46566;-78
2023/03/17 07:39:39;;;;;;;6.20;4.17;;;6.90;43.10;;;;;;5012006;28;48403;-79
2023/03/17 07:42:05;;;;;;;7.43;4.37;;;7.00;42.90;;;;;;5016361;28;46425;-79
2023/03/17 07:44:32;;;;;;;6.90;4.40;;;7.00;43.20;;;;;;5013052;28;46440;-78
2023/03/17 07:46:57;;;;;;;6.90;4.00;;;7.10;43.10;;;;;;5014917;28;46536;-78
2023/03/17 07:49:23;;;;;;;7.00;4.23;;;7.10;43.00;;;;;;5017040;28;46222;-77
2023/03/17 07:51:49;;;;;;;8.93;5.00;;;7.30;42.90;;;;;;5012545;28;46408;-77
2023/03/17 07:54:14;;;;;;;7.53;4.53;;;7.40;42.90;;;;;;5015390;28;46412;-78
2023/03/17 07:56:40;;;;;;;8.00;5.10;;;7.50;42.50;;;;;;5019304;28;46414;-77
2023/03/17 07:59:07;;;;;;;9.40;5.90;;;7.60;42.60;;;;;;5017109;28;46497;-80
2023/03/17 08:01:34;;;;;;;11.67;5.10;;;7.70;42.50;;;;;;5016244;28;46680;-78
2023/03/17 08:04:00;;;;;;;10.67;4.77;;;7.90;42.50;;;;;;5013197;28;46424;-77
2023/03/17 08:06:25;;;;;;;7.60;4.53;;;8.00;42.20;;;;;;5011869;28;46412;-77
2023/03/17 08:08:53;;;;;;;15.20;4.67;;;8.10;42.20;;;;;;5010973;28;46403;-78
2023/03/17 08:11:19;;;;;;;6.67;4.60;;;8.00;42.20;;;;;;5017304;28;46426;-78
2023/03/17 08:13:46;;;;;;;6.60;4.60;;;8.10;42.30;;;;;;5013239;28;47156;-78
2023/03/17 08:16:12;;;;;;;7.53;4.23;;;8.10;42.50;;;;;;5014413;28;46380;-78
2023/03/17 08:18:38;;;;;;;11.43;5.50;;;8.20;42.60;;;;;;5013893;28;46317;-78
2023/03/17 08:21:04;;;;;;;9.20;4.63;;;8.30;42.20;;;;;;5016708;28;46567;-78
2023/03/17 08:23:30;;;;;;;6.20;4.20;;;8.50;41.80;;;;;;5012237;28;46371;-79
2023/03/17 08:26:00;;;;;;;7.10;4.40;;;8.70;40.60;;;;;;5018209;28;46602;-78
2023/03/17 08:28:26;;;;;;;7.70;5.07;;;8.90;40.30;;;;;;5012831;28;46691;-77
2023/03/17 08:30:53;;;;;;;8.70;5.40;;;8.90;40.60;;;;;;5009612;28;46431;-76
2023/03/17 08:33:19;;;;;;;8.20;4.53;;;9.00;40.60;;;;;;5015877;28;46624;-76
2023/03/17 08:35:45;;;;;;;8.73;5.17;;;9.10;40.20;;;;;;5014207;28;46485;-78
2023/03/17 08:38:11;;;;;;;9.37;4.90;;;9.20;39.80;;;;;;5011587;28;46943;-78
2023/03/17 08:40:38;;;;;;;7.40;4.90;;;9.30;39.80;;;;;;5040879;28;46466;-77
2023/03/17 08:43:05;;;;;;;7.73;4.77;;;9.30;39.50;;;;;;5011368;28;46364;-77
2023/03/17 08:45:31;;;;;;;9.93;5.90;;;9.30;40.80;;;;;;5016532;28;46188;-77
2023/03/17 08:47:56;;;;;;;6.60;4.67;;;9.40;39.30;;;;;;5014131;28;47170;-78
2023/03/17 08:50:22;;;;;;;13.57;5.00;;;9.30;39.10;;;;;;5013044;28;46370;-77
2023/03/17 08:52:50;;;;;;;6.37;3.97;;;9.40;38.90;;;;;;5014227;28;46415;-77
2023/03/17 08:55:16;;;;;;;7.53;4.47;;;9.60;39.00;;;;;;5009782;28;46466;-79
2023/03/17 08:57:43;;;;;;;5.30;3.50;;;9.70;38.10;;;;;;5014002;28;46193;-78
2023/03/17 09:00:13;;;;;;;7.10;3.83;;;9.70;38.30;;;;;;5017025;28;46435;-77
2023/03/17 09:02:44;;;;;;;8.60;4.57;;;9.70;38.10;;;;;;5013767;28;46668;-77
2023/03/17 09:05:12;;;;;;;7.13;3.90;;;9.90;37.60;;;;;;5016555;28;46462;-77
2023/03/17 09:07:39;;;;;;;7.43;4.70;;;10.20;35.80;;;;;;5020566;28;47574;-77
2023/03/17 09:10:06;;;;;;;6.63;4.10;;;10.50;35.20;;;;;;5014807;28;46457;-78
2023/03/17 09:12:31;;;;;;;9.53;4.80;;;10.50;34.00;;;;;;5015640;28;46737;-78
2023/03/17 09:14:58;;;;;;;7.23;4.53;;;10.60;34.50;;;;;;5011946;28;46828;-78
2023/03/17 09:17:23;;;;;;;8.13;4.60;;;10.80;34.20;;;;;;5011553;28;47459;-78
2023/03/17 09:19:49;;;;;;;5.13;3.60;;;11.00;33.70;;;;;;5020103;28;46418;-78
2023/03/17 09:22:20;;;;;;;6.17;3.80;;;11.10;33.10;;;;;;5010765;28;46835;-78
2023/03/17 09:24:45;;;;;;;8.37;4.67;;;11.20;32.50;;;;;;5014057;28;46765;-78
2023/03/17 09:27:11;;;;;;;7.60;4.57;;;11.40;32.10;;;;;;5013904;28;47159;-81
2023/03/17 09:29:37;;;;;;;7.10;4.47;;;11.60;31.70;;;;;;5013050;28;46157;-80
2023/03/17 09:32:03;;;;;;;6.80;4.10;;;11.70;31.30;;;;;;5015498;28;46493;-77
2023/03/17 09:34:28;;;;;;;8.97;3.90;;;11.80;31.10;;;;;;5019435;28;46372;-79
2023/03/17 09:36:55;;;;;;;14.53;4.50;;;11.90;31.10;;;;;;5016614;28;46471;-79
2023/03/17 09:39:22;;;;;;;6.20;3.90;;;11.90;30.90;;;;;;5026989;28;45728;-78
2023/03/17 09:41:55;;;;;;;5.77;3.80;;;11.90;30.90;;;;;;5051445;28;46479;-77
2023/03/17 09:44:33;;;;;;;11.50;4.23;;;11.80;31.00;;;;;;5012483;28;46408;-79
2023/03/17 09:47:12;;;;;;;12.93;4.40;;;11.90;30.80;;;;;;5011362;28;46014;-77
2023/03/17 09:49:46;;;;;;;8.60;4.93;;;12.00;30.50;;;;;;5012743;28;45935;-78
2023/03/17 09:52:14;;;;;;;6.37;3.90;;;12.20;30.40;;;;;;5017911;28;46379;-78
2023/03/17 09:54:40;;;;;;;7.63;4.20;;;12.40;29.60;;;;;;5012392;28;46296;-78
2023/03/17 09:57:17;;;;;;;6.40;3.60;;;12.60;29.50;;;;;;5013490;28;46143;-78
2023/03/17 09:59:46;;;;;;;6.50;3.90;;;12.50;29.40;;;;;;5012985;28;46500;-78
2023/03/17 10:02:29;;;;;;;7.27;3.77;;;12.60;28.90;;;;;;5012054;28;46476;-77
2023/03/17 10:04:56;;;;;;;8.33;3.63;;;12.70;28.50;;;;;;5012222;28;46517;-78
2023/03/17 10:07:27;;;;;;;4.90;2.70;;;12.70;29.00;;;;;;5009194;28;46780;-78
2023/03/17 10:10:12;;;;;;;6.50;3.47;;;12.70;28.40;;;;;;5013972;28;46738;-78
2023/03/17 10:12:52;;;;;;;6.03;3.33;;;12.90;28.10;;;;;;5010915;28;46369;-77
2023/03/17 10:15:44;;;;;;;5.40;3.67;;;13.20;28.30;;;;;;5011588;28;46469;-77
2023/03/17 10:18:14;;;;;;;9.03;3.50;;;13.30;28.00;;;;;;5010837;28;48022;-77
2023/03/17 10:21:05;;;;;;;7.10;2.80;;;13.30;28.00;;;;;;5010091;28;46444;-77
2023/03/17 10:23:34;;;;;;;5.43;3.30;;;13.50;27.40;;;;;;5013196;28;46513;-78
2023/03/17 10:26:31;;;;;;;6.40;3.50;;;13.50;27.30;;;;;;5013274;28;46353;-78
2023/03/17 10:28:58;;;;;;;6.40;2.73;;;13.50;26.60;;;;;;5009435;28;46585;-78
2023/03/17 10:31:31;;;;;;;9.30;3.43;;;13.50;26.80;;;;;;5015414;28;46404;-79
2023/03/17 10:34:13;;;;;;;8.13;3.00;;;13.50;26.10;;;;;;5023032;28;46540;-78
2023/03/17 10:36:43;;;;;;;4.50;2.63;;;13.70;25.90;;;;;;5013686;28;46001;-77
2023/03/17 10:39:11;;;;;;;4.70;3.10;;;13.70;25.70;;;;;;5043826;28;48359;-76
2023/03/17 10:41:51;;;;;;;4.87;3.00;;;13.90;25.20;;;;;;5011390;28;46474;-76
2023/03/17 10:44:42;;;;;;;6.40;2.73;;;14.20;24.40;;;;;;5012610;28;46651;-77
2023/03/17 10:47:22;;;;;;;7.97;2.90;;;14.40;24.00;;;;;;5011208;28;46325;-77
2023/03/17 10:49:50;;;;;;;6.10;3.50;;;14.50;23.70;;;;;;5027144;28;47137;-78
2023/03/17 10:52:29;;;;;;;6.53;3.57;;;14.70;23.90;;;;;;5012293;28;46367;-77
2023/03/17 10:55:00;;;;;;;5.97;3.00;;;14.80;23.50;;;;;;5014614;28;46485;-76
2023/03/17 10:57:27;;;;;;;5.87;3.27;;;14.90;23.30;;;;;;5011402;28;46488;-78
2023/03/17 10:59:54;;;;;;;6.73;3.53;;;14.90;23.30;;;;;;5011406;28;46583;-78
2023/03/17 11:02:24;;;;;;;7.20;3.60;;;14.90;23.10;;;;;;5013640;28;46758;-77
2023/03/17 11:04:57;;;;;;;5.93;2.83;;;15.10;22.90;;;;;;5013235;28;46451;-79
2023/03/17 11:07:35;;;;;;;4.40;3.00;;;15.10;22.50;;;;;;5014936;28;46364;-79
2023/03/17 11:10:03;;;;;;;5.40;3.17;;;15.20;22.40;;;;;;5012559;28;47327;-79
2023/03/17 11:12:38;;;;;;;8.33;3.30;;;15.30;22.60;;;;;;5012956;28;45851;-79
2023/03/17 11:15:06;;;;;;;7.53;3.70;;;15.50;22.00;;;;;;5012425;28;46360;-78
2023/03/17 11:17:51;;;;;;;7.93;4.10;;;15.30;21.40;;;;;;5010292;28;46320;-79
2023/03/17 11:20:36;;;;;;;8.20;3.40;;;15.50;21.40;;;;;;5017326;28;47083;-80
2023/03/17 11:23:04;;;;;;;11.13;3.73;;;15.70;21.40;;;;;;5012596;28;45858;-77
2023/03/17 11:25:33;;;;;;;7.87;3.60;;;15.70;21.10;;;;;;5015541;28;46450;-76
2023/03/17 11:28:05;;;;;;;5.50;3.50;;;15.60;20.60;;;;;;5013324;28;46478;-78
2023/03/17 11:30:38;;;;;;;4.20;2.63;;;15.50;20.60;;;;;;5015156;28;46898;-77
2023/03/17 11:33:41;;;;;;;14.40;4.10;;;15.30;21.00;;;;;;5012800;28;45930;-77
2023/03/17 11:36:20;;;;;;;5.10;2.87;;;15.20;20.30;;;;;;5013046;28;47458;-76
2023/03/17 11:38:56;;;;;;;10.27;3.00;;;15.40;20.20;;;;;;5014953;28;47627;-76
2023/03/17 11:41:50;;;;;;;8.73;3.00;;;15.50;20.20;;;;;;5016394;28;46073;-77
2023/03/17 11:44:22;;;;;;;5.53;3.20;;;15.70;19.60;;;;;;5008449;28;46508;-75
2023/03/17 11:47:19;;;;;;;10.03;3.70;;;15.90;19.50;;;;;;5014566;28;46387;-77
2023/03/17 11:49:57;;;;;;;6.67;3.43;;;16.00;19.60;;;;;;5017004;28;46436;-76
2023/03/17 11:52:46;;;;;;;6.43;2.63;;;16.10;19.60;;;;;;5016759;28;47391;-76
2023/03/17 11:55:22;;;;;;;10.40;2.90;;;16.30;19.40;;;;;;5046106;28;46480;-75
2023/03/17 11:58:14;;;;;;;5.67;2.70;;;16.20;19.10;;;;;;5016197;28;46690;-76
2023/03/17 12:00:54;;;;;;;5.27;3.30;;;16.20;19.00;;;;;;5012780;28;46407;-77
2023/03/17 12:03:38;;;;;;;16.73;3.73;;;16.30;18.40;;;;;;5012758;28;47682;-76
2023/03/17 12:06:19;;;;;;;6.43;3.17;;;16.40;17.80;;;;;;5012673;28;46304;-77
2023/03/17 12:08:52;;;;;;;7.50;2.90;;;16.60;17.90;;;;;;5013349;28;46190;-78
2023/03/17 12:11:27;;;;;;;5.83;3.53;;;16.70;17.80;;;;;;5014376;28;46457;-77
2023/03/17 12:14:01;;;;;;;7.70;3.07;;;16.70;17.00;;;;;;5012910;28;47135;-78
2023/03/17 12:16:48;;;;;;;4.60;2.87;;;16.70;17.40;;;;;;5031252;28;46512;-78
2023/03/17 12:19:23;;;;;;;7.03;3.30;;;16.70;16.80;;;;;;5026901;28;46453;-79
2023/03/17 12:21:53;;;;;;;4.90;3.00;;;16.70;16.90;;;;;;5062639;28;46391;-77
2023/03/17 12:24:42;;;;;;;6.70;3.03;;;16.90;17.00;;;;;;5016780;28;46386;-77
2023/03/17 12:27:15;;;;;;;6.37;3.60;;;17.00;16.60;;;;;;5015986;28;46424;-80
2023/03/17 12:29:54;;;;;;;5.23;2.73;;;17.00;16.10;;;;;;5017588;28;46755;-76
2023/03/17 12:32:32;;;;;;;8.07;3.33;;;17.10;16.10;;;;;;5013786;28;46513;-74
2023/03/17 12:35:17;;;;;;;5.57;2.50;;;17.30;16.00;;;;;;5018997;28;47835;-77
2023/03/17 12:37:43;;;;;;;4.33;2.60;;;17.30;15.80;;;;;;5019871;28;46446;-78
2023/03/17 12:40:15;;;;;;;5.63;2.80;;;17.20;15.90;;;;;;5017936;28;46444;-76
2023/03/17 12:42:41;;;;;;;7.50;1.90;;;17.30;15.60;;;;;;5018279;28;46415;-77
2023/03/17 12:45:25;;;;;;;7.33;2.10;;;17.50;15.40;;;;;;5016678;28;46691;-77
2023/03/17 12:48:21;;;;;;;7.13;2.77;;;17.60;14.70;;;;;;5014309;28;46871;-78
2023/03/17 12:51:44;;;;;;;4.70;2.70;;;17.80;14.70;;;;;;5047784;28;46426;-78
2023/03/17 12:54:25;;;;;;;6.47;2.60;;;18.00;14.60;;;;;;5009856;28;47225;-78
2023/03/17 12:56:51;;;;;;;16.47;2.90;;;17.90;14.60;;;;;;5016412;28;46816;-78
2023/03/17 12:59:23;;;;;;;11.33;3.33;;;17.80;14.60;;;;;;5011727;28;46414;-77
2023/03/17 13:01:57;;;;;;;6.27;2.63;;;17.80;14.60;;;;;;5017544;28;46641;-78
2023/03/17 13:04:28;;;;;;;4.73;2.60;;;17.90;14.40;;;;;;5012678;28;46361;-79